Time;durP1;ratioP1;P1;durP2;ratioP2;P2;SDS_P1;SDS_P2;PMS_P1;PMS_P2;Temp;Humidity;BMP_temperature;BMP_pressure;BME280_temperature;BME280_humidity;BME280_pressure;Samples;Min_cycle;Max_cycle;Signal;HPM_P1;HPM_P2
2023/04/16 00:02:13;;;;;;;79.10;20.67;;;8.70;99.90;;;;;;5024115;28;20177;-83
2023/04/16 00:04:39;;;;;;;79.85;21.15;;;8.70;99.90;;;;;;5023353;28;20267;-82
2023/04/16 00:07:05;;;;;;;79.20;16.50;;;8.80;99.90;;;;;;5023503;28;20174;-83
2023/04/16 00:09:30;;;;;;;78.17;18.67;;;8.80;99.90;;;;;;5024892;28;20189;-83
2023/04/16 00:11:56;;;;;;;79.70;19.67;;;8.80;99.90;;;;;;5024304;28;20178;-83
2023/04/16 00:14:21;;;;;;;79.07;20.97;;;8.80;99.90;;;;;;5023443;28;20197;-83
2023/04/16 00:16:50;;;;;;;83.27;19.63;;;8.70;99.90;;;;;;5023915;28;20197;-83
2023/04/16 00:19:16;;;;;;;82.13;18.77;;;8.80;99.90;;;;;;5025282;28;20185;-83
2023/04/16 00:21:42;;;;;;;76.17;16.57;;;8.80;99.90;;;;;;5024180;28;20577;-83
2023/04/16 00:24:07;;;;;;;78.60;17.93;;;8.80;99.90;;;;;;5024449;28;20194;-82
2023/04/16 00:26:33;;;;;;;78.50;14.90;;;8.80;99.90;;;;;;5022170;28;20166;-83
2023/04/16 00:28:59;;;;;;;81.13;17.50;;;8.80;99.90;;;;;;5024888;28;20401;-83
2023/04/16 00:31:29;;;;;;;80.23;21.47;;;8.80;99.90;;;;;;5022985;28;20645;-83
2023/04/16 00:33:55;;;;;;;133.45;26.52;;;8.80;99.90;;;;;;5023401;28;20431;-84
2023/04/16 00:41:25;;;;;;;83.15;22.65;;;8.60;99.90;;;;;;5023382;23;20229;-85
2023/04/16 00:43:51;;;;;;;82.57;22.98;;;8.60;99.90;;;;;;5022182;28;20209;-85
2023/04/16 00:46:22;;;;;;;78.05;26.05;;;8.60;99.90;;;;;;5023449;28;20253;-84
2023/04/16 00:48:49;;;;;;;81.70;25.58;;;8.70;99.90;;;;;;5023396;28;20174;-85
2023/04/16 00:51:16;;;;;;;84.43;25.55;;;8.70;99.90;;;;;;5023430;28;20169;-85
2023/04/16 00:53:43;;;;;;;81.90;21.45;;;8.70;99.90;;;;;;5023536;28;20193;-84
2023/04/16 00:56:09;;;;;;;80.18;21.65;;;8.80;99.90;;;;;;5023469;28;20173;-83
2023/04/16 00:58:35;;;;;;;82.25;21.48;;;8.80;99.90;;;;;;5024508;28;20226;-82
2023/04/16 01:01:01;;;;;;;79.90;18.63;;;8.80;99.90;;;;;;5023138;28;20635;-82
2023/04/16 01:03:41;;;;;;;81.47;20.73;;;8.80;99.90;;;;;;5024708;28;20186;-82
2023/04/16 01:06:06;;;;;;;84.00;22.65;;;8.80;99.90;;;;;;5024072;28;20158;-82
2023/04/16 01:08:32;;;;;;;79.20;20.90;;;8.80;99.90;;;;;;5024650;28;20169;-82
2023/04/16 01:10:58;;;;;;;78.67;21.50;;;8.70;99.90;;;;;;5022484;28;20172;-82
2023/04/16 01:13:24;;;;;;;85.30;25.80;;;8.60;99.90;;;;;;5024423;28;20432;-82
2023/04/16 01:15:50;;;;;;;82.23;20.63;;;8.60;99.90;;;;;;5023636;28;20181;-82
2023/04/16 01:18:20;;;;;;;81.50;21.20;;;8.70;99.90;;;;;;5023739;28;20506;-82
2023/04/16 01:20:47;;;;;;;78.18;20.95;;;8.70;99.90;;;;;;5091319;23;20153;-81
2023/04/16 01:23:13;;;;;;;85.80;23.60;;;8.70;99.90;;;;;;5426650;23;20199;-82
2023/04/16 01:25:38;;;;;;;84.32;23.52;;;8.60;99.90;;;;;;5267471;23;20217;-82
2023/04/16 01:28:05;;;;;;;88.70;28.20;;;8.60;99.90;;;;;;5045306;28;20170;-83
2023/04/16 01:30:31;;;;;;;85.68;24.17;;;8.60;99.90;;;;;;5045977;28;20165;-83
2023/04/16 01:32:57;;;;;;;86.90;27.47;;;8.70;99.90;;;;;;5044353;28;20240;-83
2023/04/16 01:35:24;;;;;;;88.63;27.13;;;8.70;99.90;;;;;;5044661;28;20161;-82
2023/04/16 01:37:50;;;;;;;81.85;23.90;;;8.80;99.90;;;;;;5044409;28;20186;-82
2023/04/16 01:40:16;;;;;;;84.30;20.83;;;8.80;99.90;;;;;;5043362;28;20187;-83
2023/04/16 01:42:42;;;;;;;87.55;22.08;;;8.80;99.90;;;;;;5045588;28;20161;-83
2023/04/16 01:45:08;;;;;;;89.40;26.63;;;8.70;99.90;;;;;;5043049;28;20618;-83
2023/04/16 01:47:34;;;;;;;85.20;26.80;;;8.70;99.90;;;;;;5044500;28;20244;-83
2023/04/16 01:50:00;;;;;;;89.83;29.07;;;8.60;99.90;;;;;;5044913;28;20922;-83
2023/04/16 01:52:26;;;;;;;87.18;30.33;;;8.60;99.90;;;;;;5044833;28;20889;-83
2023/04/16 01:54:52;;;;;;;83.30;27.30;;;8.60;99.90;;;;;;5042485;28;20189;-83
2023/04/16 01:57:17;;;;;;;83.30;25.90;;;8.60;99.90;;;;;;5044215;28;20189;-82
2023/04/16 01:59:43;;;;;;;87.47;23.30;;;8.60;99.90;;;;;;5043923;28;20161;-82
2023/04/16 02:02:11;;;;;;;86.80;24.97;;;8.70;99.90;;;;;;5631069;23;20203;-87
2023/04/16 02:04:39;;;;;;;87.50;25.85;;;8.70;99.90;;;;;;4996701;28;20293;-86
2023/04/16 02:07:05;;;;;;;83.35;22.52;;;8.70;99.90;;;;;;4997081;28;20181;-87
2023/04/16 02:09:33;;;;;;;78.63;22.85;;;8.80;99.90;;;;;;4997154;28;20499;-86
2023/04/16 02:12:01;;;;;;;84.75;21.27;;;8.80;99.90;;;;;;4997539;28;20175;-86
2023/04/16 02:14:27;;;;;;;86.93;19.98;;;8.80;99.90;;;;;;4997919;28;20209;-87
2023/04/16 02:16:52;;;;;;;93.33;24.07;;;8.80;99.90;;;;;;4996517;28;20662;-87
2023/04/16 02:19:18;;;;;;;91.00;21.10;;;8.80;99.90;;;;;;4996178;28;20537;-87
2023/04/16 02:21:44;;;;;;;84.07;24.93;;;8.80;99.90;;;;;;4997707;28;20548;-86
2023/04/16 02:24:09;;;;;;;88.70;22.70;;;8.80;99.90;;;;;;4997087;28;20245;-86
2023/04/16 02:26:35;;;;;;;85.60;23.47;;;8.80;99.90;;;;;;4998517;28;20434;-87
2023/04/16 02:29:01;;;;;;;88.63;23.23;;;8.80;99.90;;;;;;4998795;28;20248;-88
2023/04/16 02:31:27;;;;;;;86.70;22.33;;;8.80;99.90;;;;;;4998090;28;20656;-88
2023/04/16 02:33:53;;;;;;;88.72;24.25;;;8.80;99.90;;;;;;4996518;28;20193;-87
2023/04/16 02:36:19;;;;;;;87.20;23.70;;;8.80;99.90;;;;;;4998409;28;20218;-87
2023/04/16 02:38:45;;;;;;;89.10;24.23;;;8.80;99.90;;;;;;5000102;28;20163;-86
2023/04/16 02:41:10;;;;;;;97.10;29.00;;;8.70;99.90;;;;;;5001187;28;20428;-87
2023/04/16 02:43:36;;;;;;;86.80;30.97;;;8.60;99.90;;;;;;4999667;28;20214;-86
2023/04/16 02:46:02;;;;;;;93.33;29.03;;;8.60;99.90;;;;;;5000103;28;20208;-87
2023/04/16 02:48:28;;;;;;;88.30;26.92;;;8.70;99.90;;;;;;5001522;28;20159;-88
2023/04/16 02:50:53;;;;;;;86.27;24.87;;;8.70;99.90;;;;;;5001159;28;20196;-88
2023/04/16 02:53:20;;;;;;;83.27;26.83;;;8.60;99.90;;;;;;5000169;28;20187;-87
2023/04/16 02:55:53;;;;;;;84.28;26.42;;;8.60;99.90;;;;;;5000853;28;20166;-86
2023/04/16 02:58:23;;;;;;;86.13;26.58;;;8.60;99.90;;;;;;4998865;28;20578;-86
2023/04/16 03:00:57;;;;;;;85.82;29.75;;;8.60;99.90;;;;;;4996563;28;20167;-86
2023/04/16 03:03:23;;;;;;;83.43;25.02;;;8.60;99.90;;;;;;4996861;28;20277;-86
2023/04/16 03:05:49;;;;;;;93.13;31.38;;;8.60;99.90;;;;;;4999707;28;20234;-86
2023/04/16 03:08:15;;;;;;;83.57;26.65;;;8.60;99.90;;;;;;4998434;28;20199;-85
2023/04/16 03:10:41;;;;;;;87.57;27.27;;;8.60;99.90;;;;;;5000126;28;20166;-86
2023/04/16 03:13:06;;;;;;;86.57;24.60;;;8.60;99.90;;;;;;4999419;28;20654;-86
2023/04/16 03:15:32;;;;;;;88.10;26.20;;;8.70;99.90;;;;;;4997490;28;20178;-86
2023/04/16 03:17:59;;;;;;;83.30;29.10;;;8.70;99.90;;;;;;4997846;28;20203;-85
2023/04/16 03:20:25;;;;;;;89.15;29.67;;;8.50;99.90;;;;;;5000952;28;20402;-86
2023/04/16 03:22:54;;;;;;;93.10;26.60;;;8.50;99.90;;;;;;4998875;28;20670;-86
2023/04/16 03:25:20;;;;;;;84.60;26.50;;;8.50;99.90;;;;;;5000850;28;20402;-86
2023/04/16 03:27:48;;;;;;;94.67;25.47;;;8.50;99.90;;;;;;4998546;28;20261;-87
2023/04/16 03:30:15;;;;;;;91.70;26.95;;;8.60;99.90;;;;;;4998572;28;20409;-87
2023/04/16 03:32:41;;;;;;;90.90;31.15;;;8.60;99.90;;;;;;4998297;28;20197;-87
2023/04/16 03:35:08;;;;;;;87.72;28.00;;;8.60;99.90;;;;;;4999912;28;20725;-86
2023/04/16 03:37:34;;;;;;;89.82;30.00;;;8.50;99.90;;;;;;4999111;28;20265;-87
2023/04/16 03:40:00;;;;;;;90.88;28.63;;;8.50;99.90;;;;;;4998603;28;20181;-86
2023/04/16 03:42:26;;;;;;;85.67;27.80;;;8.50;99.90;;;;;;4999638;28;20167;-87
2023/04/16 03:44:55;;;;;;;87.30;27.60;;;8.60;99.90;;;;;;4999716;28;20940;-86
2023/04/16 03:47:20;;;;;;;85.15;26.40;;;8.50;99.90;;;;;;4998917;28;20175;-86
2023/04/16 03:49:46;;;;;;;94.47;29.47;;;8.50;99.90;;;;;;4999686;28;20231;-87
2023/04/16 03:52:11;;;;;;;84.73;26.53;;;8.50;99.90;;;;;;5000198;28;20175;-87
2023/04/16 03:54:37;;;;;;;97.87;27.50;;;8.50;99.90;;;;;;4998699;28;20255;-86
2023/04/16 03:57:03;;;;;;;91.77;30.07;;;8.50;99.90;;;;;;5000069;28;20218;-87
2023/04/16 03:59:29;;;;;;;92.03;25.43;;;8.50;99.90;;;;;;4997908;28;20171;-86
2023/04/16 04:01:54;;;;;;;88.97;26.93;;;8.50;99.90;;;;;;4998475;28;20166;-86
2023/04/16 04:04:20;;;;;;;88.20;26.83;;;8.50;99.90;;;;;;4998173;28;20282;-87
2023/04/16 04:06:46;;;;;;;90.20;29.80;;;8.50;99.90;;;;;;5000008;28;20166;-87
2023/04/16 04:09:12;;;;;;;95.37;28.50;;;8.50;99.90;;;;;;4998194;28;20581;-86
2023/04/16 04:11:38;;;;;;;85.45;27.13;;;8.60;99.90;;;;;;4998596;28;20170;-87
2023/04/16 04:14:04;;;;;;;87.77;24.43;;;8.50;99.90;;;;;;4997799;28;20209;-87
2023/04/16 04:16:33;;;;;;;85.47;26.35;;;8.60;99.90;;;;;;4999931;28;20731;-88
2023/04/16 04:18:59;;;;;;;97.28;28.25;;;8.60;99.90;;;;;;5001835;28;20246;-88
2023/04/16 04:21:27;;;;;;;88.77;25.93;;;8.50;99.90;;;;;;5001179;28;20167;-87
2023/04/16 04:23:53;;;;;;;90.68;25.85;;;8.60;99.90;;;;;;5000668;28;20185;-88
2023/04/16 04:26:18;;;;;;;88.47;26.57;;;8.60;99.90;;;;;;5001041;28;20163;-88
2023/04/16 04:28:45;;;;;;;86.50;25.17;;;8.60;99.90;;;;;;5000894;28;20913;-87
2023/04/16 04:31:12;;;;;;;94.38;28.50;;;8.60;99.90;;;;;;5000417;28;20162;-88
2023/04/16 04:33:38;;;;;;;92.20;25.83;;;8.60;99.90;;;;;;4999034;28;20202;-88
2023/04/16 04:36:03;;;;;;;96.43;27.77;;;8.70;99.90;;;;;;5000612;28;20163;-87
2023/04/16 04:38:30;;;;;;;89.97;28.53;;;8.60;99.90;;;;;;4999643;28;20402;-87
2023/04/16 04:40:56;;;;;;;91.75;26.95;;;8.70;99.90;;;;;;4996425;28;20155;-85
2023/04/16 04:43:22;;;;;;;88.22;27.20;;;8.70;99.90;;;;;;4996262;28;20182;-87
2023/04/16 04:45:48;;;;;;;94.22;26.02;;;8.70;99.90;;;;;;4996059;28;20159;-86
2023/04/16 04:48:14;;;;;;;87.83;27.53;;;8.70;99.90;;;;;;4996064;28;20194;-86
2023/04/16 04:50:41;;;;;;;97.05;29.35;;;8.70;99.90;;;;;;4994955;28;20445;-86
2023/04/16 04:53:09;;;;;;;89.95;26.85;;;8.70;99.90;;;;;;4995707;28;20213;-87
2023/04/16 04:55:38;;;;;;;92.03;28.88;;;8.70;99.90;;;;;;4998330;28;20205;-87
2023/04/16 04:58:05;;;;;;;95.78;27.30;;;8.70;99.90;;;;;;4999258;28;20603;-87
2023/04/16 05:00:32;;;;;;;88.22;23.60;;;8.70;99.90;;;;;;4998881;28;20181;-86
2023/04/16 05:03:00;;;;;;;93.63;26.92;;;8.70;99.90;;;;;;4998977;28;20189;-86
2023/04/16 05:05:26;;;;;;;91.95;27.40;;;8.80;99.90;;;;;;4999027;28;20163;-88
2023/04/16 05:07:52;;;;;;;98.27;27.37;;;8.70;99.90;;;;;;4999357;28;20274;-87
2023/04/16 05:10:17;;;;;;;96.77;27.70;;;8.70;99.90;;;;;;5000313;28;20507;-87
2023/04/16 05:12:43;;;;;;;96.47;28.47;;;8.70;99.90;;;;;;4999496;28;20224;-87
2023/04/16 05:15:09;;;;;;;94.80;27.50;;;8.80;99.90;;;;;;4999517;28;20201;-87
2023/04/16 05:17:35;;;;;;;92.40;24.85;;;8.80;99.90;;;;;;4998180;28;20716;-87
2023/04/16 05:20:00;;;;;;;90.77;27.50;;;8.80;99.90;;;;;;4998545;28;20174;-88
2023/04/16 05:22:26;;;;;;;97.30;29.70;;;8.80;99.90;;;;;;5000729;28;20409;-88
2023/04/16 05:24:52;;;;;;;91.23;25.73;;;8.70;99.90;;;;;;5000001;28;20329;-88
2023/04/16 05:27:17;;;;;;;88.27;26.17;;;8.80;99.90;;;;;;5001374;28;20170;-87
2023/04/16 05:29:43;;;;;;;94.17;29.13;;;8.80;99.90;;;;;;4998800;28;20178;-88
2023/04/16 05:32:09;;;;;;;86.90;26.30;;;8.80;99.90;;;;;;4998105;28;20193;-87
2023/04/16 05:34:34;;;;;;;95.10;26.87;;;8.80;99.90;;;;;;4998893;28;20194;-88
2023/04/16 05:37:00;;;;;;;90.23;26.60;;;8.70;99.90;;;;;;5000335;28;20237;-87
2023/04/16 05:39:25;;;;;;;89.00;24.47;;;8.80;99.90;;;;;;4998275;28;20166;-88
2023/04/16 05:41:51;;;;;;;91.20;21.63;;;8.80;99.90;;;;;;5000268;28;20167;-88
2023/04/16 05:44:17;;;;;;;88.53;25.20;;;8.80;99.90;;;;;;4999933;28;20213;-87
2023/04/16 05:46:42;;;;;;;89.37;26.50;;;8.90;99.90;;;;;;4998050;28;20270;-86
2023/04/16 05:49:09;;;;;;;91.80;27.50;;;8.80;99.90;;;;;;4998719;28;20171;-86
2023/04/16 05:51:35;;;;;;;92.00;23.05;;;8.80;99.90;;;;;;4998656;28;20225;-87
2023/04/16 05:54:01;;;;;;;88.70;26.20;;;8.80;99.90;;;;;;4998056;28;20186;-86
2023/04/16 05:56:26;;;;;;;99.40;24.47;;;8.80;99.90;;;;;;4998900;28;20186;-87
2023/04/16 05:58:52;;;;;;;88.43;23.97;;;8.90;99.90;;;;;;4999136;28;20281;-87
2023/04/16 06:01:18;;;;;;;89.97;23.67;;;8.90;99.90;;;;;;4996992;28;20175;-87
2023/04/16 06:03:44;;;;;;;87.97;24.57;;;8.90;99.90;;;;;;4999037;28;20237;-87
2023/04/16 06:06:10;;;;;;;88.13;25.58;;;8.90;99.90;;;;;;4998961;28;20159;-87
2023/04/16 06:08:35;;;;;;;93.80;25.67;;;8.80;99.90;;;;;;4998750;28;20711;-87
2023/04/16 06:11:02;;;;;;;90.57;21.77;;;8.80;99.90;;;;;;4997241;28;20417;-86
2023/04/16 06:13:27;;;;;;;91.20;25.17;;;8.80;99.90;;;;;;5003334;28;20238;-87
2023/04/16 06:15:53;;;;;;;96.03;24.37;;;8.80;99.90;;;;;;5002737;28;20186;-87
2023/04/16 06:18:19;;;;;;;89.43;24.83;;;8.80;99.90;;;;;;5001010;28;20558;-87
2023/04/16 06:20:44;;;;;;;89.13;25.70;;;8.80;99.90;;;;;;5001981;28;20166;-86
2023/04/16 06:23:10;;;;;;;92.07;21.80;;;8.90;99.90;;;;;;4999557;28;20232;-86
2023/04/16 06:25:37;;;;;;;87.30;23.38;;;8.80;99.90;;;;;;4999529;28;20209;-86
2023/04/16 06:28:02;;;;;;;88.90;24.57;;;8.90;99.90;;;;;;5000686;28;20174;-86
2023/04/16 06:30:28;;;;;;;91.67;23.83;;;8.90;99.90;;;;;;4999419;28;20178;-86
2023/04/16 06:32:54;;;;;;;93.30;23.23;;;8.90;99.90;;;;;;5000306;28;20170;-85
2023/04/16 06:35:20;;;;;;;86.83;21.47;;;8.90;99.90;;;;;;5000345;28;20179;-86
2023/04/16 06:37:46;;;;;;;91.73;23.17;;;8.90;99.90;;;;;;5001969;28;20452;-86
2023/04/16 06:40:12;;;;;;;90.35;26.20;;;8.90;99.90;;;;;;5000020;28;20159;-86
2023/04/16 06:42:37;;;;;;;88.30;21.50;;;8.90;99.90;;;;;;5000494;28;20246;-85
2023/04/16 06:45:03;;;;;;;85.77;23.67;;;8.90;99.90;;;;;;4999619;28;20425;-87
2023/04/16 06:47:29;;;;;;;89.38;23.75;;;8.90;99.90;;;;;;5000409;28;20237;-86
2023/04/16 06:49:55;;;;;;;89.40;22.10;;;9.00;99.90;;;;;;4999827;28;20170;-86
2023/04/16 06:52:20;;;;;;;90.87;23.30;;;9.00;99.90;;;;;;5002315;28;20588;-87
2023/04/16 06:54:47;;;;;;;87.27;22.13;;;9.00;99.90;;;;;;5001261;28;20191;-88
2023/04/16 06:57:12;;;;;;;91.82;22.08;;;9.00;99.90;;;;;;5002667;28;20232;-87
2023/04/16 06:59:38;;;;;;;83.87;21.47;;;9.00;99.90;;;;;;5002702;28;20163;-86
2023/04/16 07:02:04;;;;;;;85.47;21.50;;;9.00;99.90;;;;;;5001547;28;20163;-88
2023/04/16 07:04:29;;;;;;;83.23;22.20;;;9.00;99.90;;;;;;5003117;28;20194;-87
2023/04/16 07:06:55;;;;;;;86.00;21.50;;;9.00;99.90;;;;;;5001970;28;20166;-87
2023/04/16 07:09:21;;;;;;;87.37;22.67;;;9.00;99.90;;;;;;5002977;28;20170;-86
2023/04/16 07:11:47;;;;;;;87.47;20.90;;;9.00;99.90;;;;;;5003296;28;20782;-88
2023/04/16 07:14:13;;;;;;;82.73;19.80;;;9.00;99.90;;;;;;5001957;28;20187;-86
2023/04/16 07:16:39;;;;;;;85.40;22.02;;;9.00;99.90;;;;;;5000895;28;20194;-86
2023/04/16 07:19:05;;;;;;;84.25;22.38;;;9.00;99.90;;;;;;4999670;28;20217;-87
2023/04/16 07:21:31;;;;;;;80.30;21.27;;;9.00;99.90;;;;;;5000885;28;20151;-87
2023/04/16 07:23:56;;;;;;;86.10;22.30;;;9.00;99.90;;;;;;4999394;28;20190;-86
2023/04/16 07:26:22;;;;;;;91.87;26.10;;;9.00;99.90;;;;;;5000946;28;20452;-87
2023/04/16 07:28:48;;;;;;;83.40;21.70;;;9.00;99.90;;;;;;4999454;28;20542;-87
2023/04/16 07:31:13;;;;;;;87.10;23.37;;;9.00;99.90;;;;;;5000930;28;20170;-87
2023/04/16 07:33:39;;;;;;;85.90;22.63;;;9.00;99.90;;;;;;4999972;28;20187;-86
2023/04/16 07:36:05;;;;;;;83.57;21.13;;;9.00;99.90;;;;;;5000402;28;20166;-86
2023/04/16 07:38:30;;;;;;;84.50;20.50;;;9.00;99.90;;;;;;5000803;28;20194;-86
2023/04/16 07:40:56;;;;;;;81.87;24.03;;;9.00;99.90;;;;;;4999930;28;20939;-87
2023/04/16 07:43:22;;;;;;;84.70;21.50;;;9.10;99.90;;;;;;4999523;28;20221;-88
2023/04/16 07:45:48;;;;;;;85.03;21.97;;;9.10;99.90;;;;;;5000050;28;20166;-87
2023/04/16 07:48:13;;;;;;;82.80;20.70;;;9.10;99.90;;;;;;4999292;28;20675;-87
2023/04/16 07:50:40;;;;;;;85.60;20.57;;;9.10;99.90;;;;;;4999670;28;20193;-87
2023/04/16 07:53:06;;;;;;;83.03;21.05;;;9.10;99.90;;;;;;4999526;28;20194;-87
2023/04/16 07:55:32;;;;;;;81.33;19.70;;;9.10;99.90;;;;;;4999785;28;20186;-87
2023/04/16 07:57:57;;;;;;;78.87;19.00;;;9.10;99.90;;;;;;5000203;28;20433;-88
2023/04/16 08:00:23;;;;;;;81.80;20.80;;;9.10;99.90;;;;;;4998914;28;20170;-87
2023/04/16 08:02:49;;;;;;;83.50;21.77;;;9.20;99.90;;;;;;5096680;23;20232;-82
2023/04/16 08:05:14;;;;;;;84.83;21.47;;;9.20;99.90;;;;;;5039925;28;20189;-82
2023/04/16 08:07:42;;;;;;;88.07;24.20;;;9.20;99.90;;;;;;5038165;28;20443;-82
2023/04/16 08:10:08;;;;;;;90.90;25.92;;;9.30;99.90;;;;;;5039549;28;20182;-82
2023/04/16 08:12:34;;;;;;;102.67;30.17;;;9.20;99.90;;;;;;5039568;28;20582;-82
2023/04/16 08:15:00;;;;;;;101.32;28.95;;;9.20;99.90;;;;;;5039649;28;20196;-82
2023/04/16 08:17:27;;;;;;;100.37;31.13;;;9.20;99.90;;;;;;5039107;28;20201;-82
2023/04/16 08:19:53;;;;;;;105.32;30.52;;;9.20;99.90;;;;;;5038412;28;20443;-82
2023/04/16 08:22:18;;;;;;;103.87;35.10;;;9.20;99.90;;;;;;5039862;28;20219;-82
2023/04/16 08:24:44;;;;;;;103.73;30.30;;;9.20;99.90;;;;;;5039952;28;20188;-82
2023/04/16 08:27:13;;;;;;;112.90;34.90;;;9.30;99.90;;;;;;5040229;28;20517;-82
2023/04/16 08:29:38;;;;;;;121.25;34.35;;;9.30;99.90;;;;;;5041751;28;20199;-82
2023/04/16 08:32:05;;;;;;;116.47;36.13;;;9.30;99.90;;;;;;5042128;28;20165;-82
2023/04/16 08:34:31;;;;;;;111.85;35.28;;;9.30;99.90;;;;;;5100953;23;20217;-82
2023/04/16 08:36:59;;;;;;;119.00;37.80;;;9.40;99.90;;;;;;5246872;23;20761;-82
2023/04/16 08:39:24;;;;;;;119.28;34.25;;;9.40;99.90;;;;;;5041855;28;20442;-82
2023/04/16 08:41:52;;;;;;;115.93;35.80;;;9.50;99.90;;;;;;5042934;28;20165;-82
2023/04/16 08:44:23;;;;;;;115.28;32.70;;;9.50;99.90;;;;;;5040918;28;20247;-82
2023/04/16 08:46:57;;;;;;;121.53;37.03;;;9.60;99.90;;;;;;5042683;28;20517;-82
2023/04/16 08:49:24;;;;;;;119.63;35.00;;;9.60;99.90;;;;;;5040720;28;20235;-82
2023/04/16 08:51:53;;;;;;;116.45;32.65;;;9.60;99.90;;;;;;5042022;28;20537;-82
2023/04/16 08:54:35;;;;;;;109.47;33.08;;;9.80;99.90;;;;;;5042263;28;20182;-82
2023/04/16 08:57:05;;;;;;;116.43;32.83;;;9.80;99.90;;;;;;5042925;28;20208;-82
2023/04/16 08:59:32;;;;;;;116.00;37.05;;;9.70;99.90;;;;;;5042748;28;20153;-82
2023/04/16 09:01:59;;;;;;;112.85;35.53;;;9.80;99.90;;;;;;5042338;28;20165;-82
2023/04/16 09:04:29;;;;;;;115.57;35.75;;;9.80;99.90;;;;;;5042563;28;20259;-82
2023/04/16 09:06:56;;;;;;;123.70;34.75;;;9.90;99.90;;;;;;5040912;28;20180;-82
2023/04/16 09:09:26;;;;;;;115.63;33.63;;;9.80;99.90;;;;;;5041720;28;20153;-82
2023/04/16 09:11:53;;;;;;;112.18;33.13;;;9.80;99.90;;;;;;5041574;28;20208;-83
2023/04/16 09:14:19;;;;;;;112.53;32.72;;;9.80;99.90;;;;;;5042404;28;20238;-82
2023/04/16 09:16:49;;;;;;;124.13;33.92;;;9.90;99.90;;;;;;5041783;28;20181;-82
2023/04/16 09:19:15;;;;;;;124.80;37.05;;;9.90;99.90;;;;;;5042056;28;20701;-82
2023/04/16 09:21:43;;;;;;;125.77;35.50;;;9.90;99.90;;;;;;5042784;28;20184;-82
2023/04/16 09:24:10;;;;;;;127.38;38.25;;;10.00;99.90;;;;;;5040339;28;20777;-82
2023/04/16 09:26:36;;;;;;;127.97;34.75;;;10.10;99.90;;;;;;5041057;28;20162;-82
2023/04/16 09:29:02;;;;;;;120.60;36.87;;;10.10;99.90;;;;;;5041117;28;20218;-82
2023/04/16 09:31:27;;;;;;;126.90;38.20;;;10.20;99.90;;;;;;5042839;28;20164;-82
2023/04/16 09:34:07;;;;;;;127.23;37.10;;;10.30;99.90;;;;;;5042355;28;20411;-82
2023/04/16 09:36:34;;;;;;;119.22;37.33;;;10.40;99.90;;;;;;5042536;28;20231;-82
2023/04/16 09:39:03;;;;;;;120.18;34.10;;;10.60;99.90;;;;;;5042269;28;20175;-85
2023/04/16 09:41:31;;;;;;;108.63;30.77;;;10.80;99.90;;;;;;5044932;28;20182;-83
2023/04/16 09:43:59;;;;;;;108.32;29.38;;;10.90;99.90;;;;;;5045671;28;20205;-82
2023/04/16 09:46:34;;;;;;;121.97;34.53;;;11.00;99.90;;;;;;5045795;28;20161;-82
2023/04/16 09:49:12;;;;;;;100.88;29.02;;;11.00;99.90;;;;;;5043942;28;20180;-83
2023/04/16 09:51:40;;;;;;;113.78;30.77;;;10.90;99.90;;;;;;5042615;28;20161;-83
2023/04/16 09:54:06;;;;;;;106.00;30.08;;;11.00;99.90;;;;;;5042754;28;20595;-83
2023/04/16 09:56:32;;;;;;;110.40;29.88;;;11.10;99.90;;;;;;5043159;28;20637;-83
2023/04/16 09:59:01;;;;;;;106.60;32.60;;;11.20;99.90;;;;;;5043629;28;20164;-83
2023/04/16 10:01:27;;;;;;;102.47;30.40;;;11.20;99.90;;;;;;5044303;28;20480;-83
2023/04/16 10:03:55;;;;;;;105.85;30.65;;;11.30;99.90;;;;;;5043963;28;20648;-83
2023/04/16 10:06:24;;;;;;;100.07;28.65;;;11.40;99.90;;;;;;5043819;28;20256;-83
2023/04/16 10:08:51;;;;;;;97.25;28.02;;;11.40;99.90;;;;;;5043831;28;20188;-82
2023/04/16 10:13:47;;;;;;;98.80;24.35;;;11.50;99.90;;;;;;5018479;28;20214;-85
2023/04/16 10:16:13;;;;;;;99.82;26.75;;;11.60;99.90;;;;;;5023436;28;20165;-83
2023/04/16 10:18:43;;;;;;;91.07;24.20;;;11.60;99.90;;;;;;5024837;28;20182;-83
2023/04/16 10:21:12;;;;;;;98.15;27.17;;;11.50;99.90;;;;;;5023896;28;20151;-83
2023/04/16 10:23:39;;;;;;;97.38;25.52;;;11.50;99.90;;;;;;5022633;28;20190;-82
2023/04/16 10:26:05;;;;;;;97.55;27.50;;;11.40;99.90;;;;;;5024020;28;20186;-83
2023/04/16 10:28:34;;;;;;;97.47;27.48;;;11.40;99.90;;;;;;5024363;28;20160;-83
2023/04/16 10:31:02;;;;;;;94.97;27.40;;;11.50;99.90;;;;;;5024887;28;20190;-82
2023/04/16 10:33:31;;;;;;;96.70;26.85;;;11.50;99.90;;;;;;5024223;28;20307;-82
2023/04/16 10:36:22;;;;;;;100.10;27.00;;;11.60;99.90;;;;;;5023227;28;20177;-82
2023/04/16 10:38:52;;;;;;;103.97;30.70;;;11.70;99.90;;;;;;5023419;28;20150;-82
2023/04/16 10:41:19;;;;;;;102.25;29.90;;;11.70;99.90;;;;;;5022495;28;20663;-83
2023/04/16 10:43:47;;;;;;;102.32;30.55;;;11.80;99.90;;;;;;5023528;28;20186;-82
2023/04/16 10:46:32;;;;;;;101.38;31.10;;;11.80;99.90;;;;;;5023682;28;20197;-83
2023/04/16 10:49:11;;;;;;;105.55;32.88;;;11.60;99.90;;;;;;5022279;28;20155;-84
2023/04/16 10:51:37;;;;;;;109.85;32.40;;;11.70;99.90;;;;;;5023118;28;20153;-84
2023/04/16 10:54:06;;;;;;;104.65;32.63;;;11.70;99.90;;;;;;5022162;28;20177;-84
2023/04/16 10:56:34;;;;;;;109.35;32.92;;;11.60;99.90;;;;;;5022271;28;20234;-84
2023/04/16 10:59:03;;;;;;;106.57;30.88;;;11.60;99.90;;;;;;5028372;28;20529;-84
2023/04/16 11:01:33;;;;;;;97.47;29.63;;;11.50;99.90;;;;;;5026839;28;20169;-84
2023/04/16 11:04:00;;;;;;;106.50;27.80;;;11.60;99.90;;;;;;5027091;28;20189;-84
2023/04/16 11:06:27;;;;;;;102.35;31.35;;;11.70;99.90;;;;;;5025759;28;20519;-84
2023/04/16 11:08:53;;;;;;;104.57;29.67;;;11.70;99.90;;;;;;5025662;28;20162;-84
2023/04/16 11:11:19;;;;;;;99.80;30.53;;;11.80;99.90;;;;;;5025791;28;20169;-84
2023/04/16 11:13:45;;;;;;;94.05;25.63;;;11.90;99.90;;;;;;5026000;28;20441;-84
2023/04/16 11:16:13;;;;;;;95.90;27.23;;;11.90;99.90;;;;;;5024563;28;20170;-84
2023/04/16 11:18:42;;;;;;;103.03;32.15;;;11.90;99.90;;;;;;5026804;28;20507;-84
2023/04/16 11:21:09;;;;;;;106.10;28.02;;;11.90;99.90;;;;;;5027275;28;20169;-85
2023/04/16 11:23:52;;;;;;;100.70;26.20;;;11.90;99.90;;;;;;5027121;28;20209;-84
2023/04/16 11:26:23;;;;;;;100.72;25.08;;;12.00;99.90;;;;;;5027551;28;20166;-84
2023/04/16 11:28:49;;;;;;;101.60;26.50;;;12.10;99.90;;;;;;5026419;28;20169;-84
2023/04/16 11:31:15;;;;;;;99.57;26.40;;;12.00;99.90;;;;;;5025322;28;20664;-84
2023/04/16 11:33:41;;;;;;;99.97;26.47;;;11.90;99.90;;;;;;5025919;28;20684;-84
2023/04/16 11:36:07;;;;;;;99.65;28.00;;;12.00;99.90;;;;;;5025758;28;20935;-86
2023/04/16 11:38:42;;;;;;;103.07;26.47;;;12.20;99.90;;;;;;5025624;28;20190;-85
2023/04/16 11:41:09;;;;;;;101.53;26.85;;;12.30;99.90;;;;;;5024881;28;20160;-84
2023/04/16 11:43:35;;;;;;;104.82;24.88;;;12.40;99.90;;;;;;5025262;28;20181;-84
2023/04/16 11:46:03;;;;;;;101.53;24.43;;;12.60;99.90;;;;;;5025374;28;20162;-84
2023/04/16 11:48:50;;;;;;;95.22;25.00;;;12.70;99.90;;;;;;5025842;28;20697;-84
2023/04/16 11:51:17;;;;;;;99.60;25.95;;;12.60;99.90;;;;;;5024269;28;20518;-84
2023/04/16 11:54:01;;;;;;;97.70;25.40;;;12.60;99.90;;;;;;5024721;28;20178;-84
2023/04/16 11:56:28;;;;;;;95.57;24.65;;;12.60;99.90;;;;;;5024979;28;20158;-84
2023/04/16 11:59:16;;;;;;;97.93;27.25;;;12.80;99.90;;;;;;5024555;28;20198;-84
2023/04/16 12:01:48;;;;;;;96.97;25.55;;;13.00;99.90;;;;;;5024822;28;20157;-84
2023/04/16 12:04:15;;;;;;;99.70;25.80;;;12.90;99.90;;;;;;5025279;28;20217;-82
2023/04/16 12:07:18;;;;;;;95.23;24.77;;;12.90;99.90;;;;;;5026294;28;20170;-82
2023/04/16 12:09:44;;;;;;;97.60;25.48;;;13.10;99.90;;;;;;5024578;28;20423;-82
2023/04/16 12:12:26;;;;;;;96.23;24.50;;;13.00;99.90;;;;;;5024411;28;20185;-82
2023/04/16 12:14:53;;;;;;;108.73;28.30;;;12.80;99.90;;;;;;5024983;28;20189;-82
2023/04/16 12:17:20;;;;;;;97.95;24.27;;;12.80;99.90;;;;;;5023963;28;20448;-82
2023/04/16 12:19:55;;;;;;;94.85;22.05;;;12.80;99.90;;;;;;5024948;28;20166;-82
2023/04/16 12:22:33;;;;;;;98.22;24.67;;;12.90;99.90;;;;;;5023301;28;20165;-82
2023/04/16 12:25:09;;;;;;;95.60;24.80;;;12.90;99.90;;;;;;5024070;28;20192;-82
2023/04/16 12:27:46;;;;;;;96.00;24.17;;;12.90;99.90;;;;;;5023571;28;20479;-82
2023/04/16 12:30:14;;;;;;;93.68;23.55;;;13.00;99.90;;;;;;5024998;28;20161;-82
2023/04/16 12:32:41;;;;;;;99.97;22.33;;;13.00;99.90;;;;;;5024190;28;20649;-84
2023/04/16 12:35:08;;;;;;;94.50;22.42;;;13.00;99.90;;;;;;5024454;28;20492;-84
2023/04/16 12:37:34;;;;;;;95.22;23.20;;;13.10;99.90;;;;;;5023751;28;20196;-84
2023/04/16 12:40:01;;;;;;;91.20;22.20;;;13.10;99.90;;;;;;5023338;28;20158;-84
2023/04/16 12:42:33;;;;;;;91.00;22.98;;;13.10;99.90;;;;;;5026171;28;20401;-84